createdAt,value
2017-09-02T00:00:40.919Z,0
2017-09-02T00:01:41.666Z,0
2017-09-02T00:02:42.384Z,0
2017-09-02T00:03:43.108Z,0
2017-09-02T00:04:43.852Z,0
2017-09-02T00:05:44.574Z,0
2017-09-02T00:06:45.300Z,0
2017-09-02T00:07:46.025Z,0
2017-09-02T00:08:46.749Z,0
2017-09-02T00:09:47.495Z,0
2017-09-02T00:10:48.240Z,0
2017-09-02T00:11:48.962Z,0
2017-09-02T00:12:49.691Z,0
2017-09-02T00:13:50.433Z,0
2017-09-02T00:14:51.161Z,0
2017-09-02T00:15:51.908Z,0
2017-09-02T00:16:52.639Z,0
2017-09-02T00:17:53.376Z,0
2017-09-02T00:18:54.097Z,0
2017-09-02T00:19:54.823Z,0
2017-09-02T00:20:55.546Z,0
2017-09-02T00:21:56.271Z,0
2017-09-02T00:22:56.996Z,0
2017-09-02T00:23:57.718Z,0
2017-09-02T00:24:58.443Z,0
2017-09-02T00:25:59.168Z,0
2017-09-02T00:26:59.893Z,0
2017-09-02T00:28:00.618Z,0
2017-09-02T00:29:01.340Z,0
2017-09-02T00:30:02.065Z,0
2017-09-02T00:31:02.810Z,0
2017-09-02T00:32:03.533Z,0
2017-09-02T00:33:04.255Z,0
2017-09-02T00:34:04.982Z,0
2017-09-02T00:35:05.725Z,0
2017-09-02T00:36:06.477Z,0
2017-09-02T00:37:07.191Z,0
2017-09-02T00:38:07.919Z,0
2017-09-02T00:39:08.642Z,0
2017-09-02T00:40:09.365Z,0
2017-09-02T00:41:10.111Z,0
2017-09-02T00:42:10.837Z,0
2017-09-02T00:43:11.560Z,0
2017-09-02T00:44:12.279Z,0
2017-09-02T00:45:13.001Z,0
2017-09-02T00:46:13.724Z,0
2017-09-02T00:47:14.470Z,0
2017-09-02T00:48:15.190Z,0
2017-09-02T00:49:15.936Z,0
2017-09-02T00:50:16.658Z,0
2017-09-02T00:51:17.403Z,0
2017-09-02T00:52:18.146Z,0
2017-09-02T00:53:18.872Z,0
2017-09-02T00:54:19.597Z,0
2017-09-02T00:55:20.326Z,0
2017-09-02T00:56:21.040Z,0
2017-09-02T00:57:21.763Z,0
2017-09-02T00:58:22.486Z,0
2017-09-02T00:59:23.207Z,0
2017-09-02T01:00:23.932Z,0
2017-09-02T01:01:24.653Z,0
2017-09-02T01:02:25.372Z,0
2017-09-02T01:03:26.093Z,0
2017-09-02T01:04:26.818Z,0
2017-09-02T01:05:27.557Z,0
2017-09-02T01:06:28.305Z,0
2017-09-02T01:07:29.023Z,0
2017-09-02T01:08:29.767Z,0
2017-09-02T01:09:30.491Z,0
2017-09-02T01:10:31.215Z,0
2017-09-02T01:11:31.961Z,0
2017-09-02T01:12:32.684Z,0
2017-09-02T01:13:33.407Z,0
2017-09-02T01:14:34.134Z,0
2017-09-02T01:15:34.877Z,0
2017-09-02T01:16:35.598Z,0
2017-09-02T01:17:36.341Z,0
2017-09-02T01:18:37.062Z,0
2017-09-02T01:19:37.809Z,0
2017-09-02T01:20:38.528Z,0
2017-09-02T01:21:39.276Z,0
2017-09-02T01:22:39.996Z,0
2017-09-02T01:23:40.720Z,0
2017-09-02T01:24:41.440Z,0
2017-09-02T01:25:42.161Z,0
2017-09-02T01:26:42.881Z,0
2017-09-02T01:27:43.627Z,0
2017-09-02T01:28:44.347Z,0
2017-09-02T01:29:45.069Z,0
2017-09-02T01:30:45.796Z,0
2017-09-02T01:31:46.517Z,0
2017-09-02T01:32:47.239Z,0
2017-09-02T01:33:47.985Z,0
2017-09-02T01:34:48.727Z,0
2017-09-02T01:35:49.473Z,0
2017-09-02T01:36:50.197Z,0
2017-09-02T01:37:50.918Z,0
2017-09-02T01:38:51.637Z,0
2017-09-02T01:39:52.358Z,0
2017-09-02T01:40:53.082Z,0
2017-09-02T01:41:53.806Z,0
2017-09-02T01:42:54.552Z,0
2017-09-02T01:43:55.271Z,0
2017-09-02T01:44:56.015Z,0
2017-09-02T01:45:56.757Z,0
2017-09-02T01:46:57.484Z,0
2017-09-02T01:47:58.229Z,0
2017-09-02T01:48:58.947Z,0
2017-09-02T01:49:59.668Z,0
2017-09-02T01:51:00.398Z,0
2017-09-02T01:52:01.119Z,0
2017-09-02T01:53:01.862Z,0
2017-09-02T01:54:02.588Z,0
2017-09-02T01:55:03.311Z,0
2017-09-02T01:56:04.052Z,0
2017-09-02T01:57:04.779Z,0
2017-09-02T01:58:05.500Z,0
2017-09-02T01:59:06.223Z,0
2017-09-02T02:00:06.973Z,0
2017-09-02T02:01:07.690Z,0
2017-09-02T02:02:08.415Z,0
2017-09-02T02:03:09.158Z,0
2017-09-02T02:04:09.880Z,0
2017-09-02T02:05:10.600Z,0
2017-09-02T02:06:11.322Z,0
2017-09-02T02:07:12.069Z,0
2017-09-02T02:08:12.787Z,0
2017-09-02T02:09:13.513Z,0
2017-09-02T02:10:14.235Z,0
2017-09-02T02:11:14.958Z,0
2017-09-02T02:12:15.678Z,0
2017-09-02T02:13:16.404Z,0
2017-09-02T02:14:17.122Z,0
2017-09-02T02:15:17.849Z,0
2017-09-02T02:16:18.571Z,0
2017-09-02T02:17:19.315Z,0
2017-09-02T02:18:20.037Z,0
2017-09-02T02:19:20.764Z,0
2017-09-02T02:20:21.506Z,0
2017-09-02T02:21:22.246Z,0
2017-09-02T02:22:22.968Z,0
2017-09-02T02:23:23.713Z,0
2017-09-02T02:24:24.456Z,0
2017-09-02T02:25:25.204Z,0
2017-09-02T02:26:25.927Z,0
2017-09-02T02:27:26.649Z,0
2017-09-02T02:28:27.369Z,0
2017-09-02T02:29:28.093Z,0
2017-09-02T02:30:28.814Z,0
2017-09-02T02:31:29.539Z,0
2017-09-02T02:32:30.271Z,0
2017-09-02T02:33:30.988Z,0
2017-09-02T02:34:31.729Z,0
2017-09-02T02:35:32.453Z,0
2017-09-02T02:36:33.176Z,0
2017-09-02T02:37:33.896Z,0
2017-09-02T02:38:34.617Z,0
2017-09-02T02:39:35.342Z,0
2017-09-02T02:40:36.090Z,0
2017-09-02T02:41:36.813Z,0
2017-09-02T02:42:37.530Z,0
2017-09-02T02:43:38.277Z,0
2017-09-02T02:44:38.997Z,0
2017-09-02T02:45:39.742Z,0
2017-09-02T02:46:40.466Z,0
2017-09-02T02:47:41.182Z,0
2017-09-02T02:48:41.927Z,0
2017-09-02T02:49:42.647Z,0
2017-09-02T02:50:43.372Z,0
2017-09-02T02:51:44.096Z,0
2017-09-02T02:52:44.816Z,0
2017-09-02T02:53:45.539Z,0
2017-09-02T02:54:46.264Z,0
2017-09-02T02:55:46.981Z,0
2017-09-02T02:56:47.706Z,0
2017-09-02T02:57:48.424Z,0
2017-09-02T02:58:49.148Z,0
2017-09-02T02:59:49.871Z,0
2017-09-02T03:00:50.592Z,0
2017-09-02T03:01:51.319Z,0
2017-09-02T03:02:52.063Z,0
2017-09-02T03:03:52.782Z,0
2017-09-02T03:04:53.508Z,0
2017-09-02T03:05:54.229Z,0
2017-09-02T03:06:54.949Z,0
2017-09-02T03:07:55.669Z,0
2017-09-02T03:08:56.390Z,0
2017-09-02T03:09:57.113Z,0
2017-09-02T03:10:57.840Z,0
2017-09-02T03:11:58.562Z,0
2017-09-02T03:12:59.305Z,0
2017-09-02T03:14:00.030Z,0
2017-09-02T03:15:00.774Z,0
2017-09-02T03:16:01.514Z,0
2017-09-02T03:17:02.235Z,0
2017-09-02T03:18:02.980Z,0
2017-09-02T03:19:03.721Z,0
2017-09-02T03:20:04.464Z,0
2017-09-02T03:21:05.186Z,0
2017-09-02T03:22:05.909Z,0
2017-09-02T03:23:06.630Z,0
2017-09-02T03:24:07.352Z,0
2017-09-02T03:25:08.071Z,0
2017-09-02T03:26:08.794Z,0
2017-09-02T03:27:09.517Z,0
2017-09-02T03:28:10.242Z,0
2017-09-02T03:29:10.958Z,0
2017-09-02T03:30:11.680Z,0
2017-09-02T03:31:12.399Z,0
2017-09-02T03:32:13.123Z,0
2017-09-02T03:33:13.850Z,0
2017-09-02T03:34:14.571Z,0
2017-09-02T03:35:15.292Z,0
2017-09-02T03:36:16.017Z,0
2017-09-02T03:37:16.760Z,0
2017-09-02T03:38:17.456Z,0
2017-09-02T03:39:18.179Z,0
2017-09-02T03:40:18.901Z,0
2017-09-02T03:41:19.628Z,0
2017-09-02T03:42:20.348Z,0
2017-09-02T03:43:21.069Z,0
2017-09-02T03:44:21.788Z,0
2017-09-02T03:45:22.514Z,0
2017-09-02T03:46:23.232Z,0
2017-09-02T03:47:23.955Z,0
2017-09-02T03:48:24.698Z,0
2017-09-02T03:49:25.424Z,0
2017-09-02T03:50:26.145Z,0
2017-09-02T03:51:26.867Z,0
2017-09-02T03:52:27.588Z,0
2017-09-02T03:53:28.309Z,0
2017-09-02T03:54:29.030Z,0
2017-09-02T03:55:29.750Z,0
2017-09-02T03:56:30.472Z,0
2017-09-02T03:57:31.192Z,0
2017-09-02T03:58:31.916Z,0
2017-09-02T03:59:32.639Z,0
2017-09-02T04:00:33.386Z,0
2017-09-02T04:01:34.106Z,0
2017-09-02T04:02:34.830Z,0
2017-09-02T04:03:35.549Z,0
2017-09-02T04:04:36.296Z,0
2017-09-02T04:05:37.013Z,0
2017-09-02T04:06:37.736Z,0
2017-09-02T04:07:38.457Z,0
2017-09-02T04:08:39.182Z,0
2017-09-02T04:09:39.920Z,0
2017-09-02T04:10:40.663Z,0
2017-09-02T04:11:41.386Z,0
2017-09-02T04:12:42.108Z,0
2017-09-02T04:13:42.833Z,0
2017-09-02T04:14:43.553Z,0
2017-09-02T04:15:44.275Z,4
2017-09-02T04:16:44.997Z,4
2017-09-02T04:17:45.718Z,4
2017-09-02T04:18:46.438Z,4
2017-09-02T04:19:47.160Z,4
2017-09-02T04:20:47.902Z,4
2017-09-02T04:21:48.644Z,8
2017-09-02T04:22:49.369Z,8
2017-09-02T04:23:50.091Z,12
2017-09-02T04:24:50.813Z,12
2017-09-02T04:25:51.538Z,20
2017-09-02T04:26:52.261Z,20
2017-09-02T04:27:53.009Z,24
2017-09-02T04:28:53.731Z,32
2017-09-02T04:29:54.451Z,36
2017-09-02T04:30:55.192Z,44
2017-09-02T04:31:55.942Z,52
2017-09-02T04:32:56.667Z,52
2017-09-02T04:33:57.414Z,60
2017-09-02T04:34:58.133Z,68
2017-09-02T04:35:58.860Z,72
2017-09-02T04:36:59.601Z,84
2017-09-02T04:38:00.343Z,88
2017-09-02T04:39:01.096Z,96
2017-09-02T04:40:01.814Z,104
2017-09-02T04:41:02.541Z,108
2017-09-02T04:42:03.258Z,120
2017-09-02T04:43:04.000Z,136
2017-09-02T04:44:04.745Z,148
2017-09-02T04:45:05.492Z,164
2017-09-02T04:46:06.213Z,180
2017-09-02T04:47:06.939Z,200
2017-09-02T04:48:07.668Z,220
2017-09-02T04:49:08.408Z,244
2017-09-02T04:50:09.136Z,264
2017-09-02T04:51:09.860Z,284
2017-09-02T04:52:10.584Z,304
2017-09-02T04:53:11.326Z,328
2017-09-02T04:54:12.055Z,356
2017-09-02T04:55:12.782Z,376
2017-09-02T04:56:13.504Z,400
2017-09-02T04:57:14.248Z,424
2017-09-02T04:58:14.978Z,440
2017-09-02T04:59:15.701Z,460
2017-09-02T05:00:16.449Z,484
2017-09-02T05:01:17.174Z,508
2017-09-02T05:02:17.899Z,528
2017-09-02T05:03:18.649Z,548
2017-09-02T05:04:19.370Z,568
2017-09-02T05:05:20.096Z,592
2017-09-02T05:06:20.818Z,612
2017-09-02T05:07:21.546Z,636
2017-09-02T05:08:22.272Z,668
2017-09-02T05:09:23.016Z,700
2017-09-02T05:10:23.742Z,740
2017-09-02T05:11:24.471Z,772
2017-09-02T05:12:25.194Z,808
2017-09-02T05:13:25.939Z,844
2017-09-02T05:14:26.683Z,880
2017-09-02T05:15:27.430Z,912
2017-09-02T05:16:28.174Z,952
2017-09-02T05:17:28.901Z,988
2017-09-02T05:18:29.627Z,1024
2017-09-02T05:19:30.352Z,1064
2017-09-02T05:20:31.084Z,1100
2017-09-02T05:21:31.807Z,1144
2017-09-02T05:22:32.532Z,1192
2017-09-02T05:23:33.258Z,1240
2017-09-02T05:24:33.982Z,1288
2017-09-02T05:25:34.710Z,1332
2017-09-02T05:26:35.439Z,1384
2017-09-02T05:27:36.188Z,1436
2017-09-02T05:28:36.913Z,1484
2017-09-02T05:29:37.642Z,1544
2017-09-02T05:30:38.368Z,1596
2017-09-02T05:31:39.117Z,1648
2017-09-02T05:32:39.843Z,1700
2017-09-02T05:33:40.569Z,1748
2017-09-02T05:34:41.295Z,1804
2017-09-02T05:35:42.045Z,1868
2017-09-02T05:36:42.788Z,1940
2017-09-02T05:37:43.516Z,2008
2017-09-02T05:38:44.241Z,2076
2017-09-02T05:39:44.965Z,2136
2017-09-02T05:40:45.697Z,2188
2017-09-02T05:41:46.423Z,2244
2017-09-02T05:42:47.153Z,2320
2017-09-02T05:43:47.873Z,2384
2017-09-02T05:44:48.600Z,2456
2017-09-02T05:45:49.329Z,2532
2017-09-02T05:46:50.054Z,2600
2017-09-02T05:47:50.805Z,2660
2017-09-02T05:48:51.531Z,2720
2017-09-02T05:49:52.280Z,2780
2017-09-02T05:50:53.030Z,2852
2017-09-02T05:51:53.756Z,2912
2017-09-02T05:52:54.489Z,2968
2017-09-02T05:53:55.214Z,3020
2017-09-02T05:54:55.938Z,3076
2017-09-02T05:55:56.667Z,3112
2017-09-02T05:56:57.415Z,3144
2017-09-02T05:57:58.144Z,3176
2017-09-02T05:58:58.872Z,3200
2017-09-02T05:59:59.600Z,3252
2017-09-02T06:01:00.348Z,3300
2017-09-02T06:02:01.078Z,3352
2017-09-02T06:03:01.806Z,3408
2017-09-02T06:04:02.533Z,3476
2017-09-02T06:05:03.265Z,3540
2017-09-02T06:06:03.989Z,3584
2017-09-02T06:07:04.718Z,3640
2017-09-02T06:08:05.450Z,3692
2017-09-02T06:09:06.178Z,3684
2017-09-02T06:10:06.907Z,3724
2017-09-02T06:11:07.637Z,3856
2017-09-02T06:12:08.365Z,3972
2017-09-02T06:13:09.114Z,4052
2017-09-02T06:14:09.841Z,4120
2017-09-02T06:15:10.593Z,4172
2017-09-02T06:16:11.320Z,4232
2017-09-02T06:17:12.047Z,4292
2017-09-02T06:18:12.778Z,4360
2017-09-02T06:19:13.505Z,4428
2017-09-02T06:20:14.238Z,4500
2017-09-02T06:21:14.966Z,4508
2017-09-02T06:22:15.715Z,4616
2017-09-02T06:23:16.447Z,4760
2017-09-02T06:24:17.201Z,4844
2017-09-02T06:25:17.925Z,4880
2017-09-02T06:26:18.656Z,4912
2017-09-02T06:27:19.409Z,4888
2017-09-02T06:28:20.133Z,4888
2017-09-02T06:29:20.866Z,4940
2017-09-02T06:30:21.614Z,5064
2017-09-02T06:31:22.346Z,5204
2017-09-02T06:32:23.093Z,5420
2017-09-02T06:33:23.823Z,5616
2017-09-02T06:34:24.551Z,5864
2017-09-02T06:35:25.284Z,6656
2017-09-02T06:36:26.014Z,6800
2017-09-02T06:37:26.741Z,7400
2017-09-02T06:38:27.472Z,8636
2017-09-02T06:39:28.202Z,12412
2017-09-02T06:40:28.958Z,15552
2017-09-02T06:41:29.685Z,16160
2017-09-02T06:42:30.439Z,15840
2017-09-02T06:43:31.168Z,15616
2017-09-02T06:44:31.903Z,16128
2017-09-02T06:45:32.636Z,16768
2017-09-02T06:46:33.367Z,17536
2017-09-02T06:47:34.099Z,18432
2017-09-02T06:48:34.830Z,18560
2017-09-02T06:49:35.563Z,17600
2017-09-02T06:50:36.301Z,16992
2017-09-02T06:51:37.028Z,18176
2017-09-02T06:52:37.778Z,19616
2017-09-02T06:53:38.514Z,19392
2017-09-02T06:54:39.243Z,18912
2017-09-02T06:55:39.978Z,18688
2017-09-02T06:56:40.710Z,19328
2017-09-02T06:57:41.444Z,17728
2017-09-02T06:58:42.198Z,11624
2017-09-02T06:59:42.950Z,7728
2017-09-02T07:00:43.709Z,7160
2017-09-02T07:01:44.458Z,7044
2017-09-02T07:02:45.189Z,7004
2017-09-02T07:03:45.924Z,6952
2017-09-02T07:04:46.658Z,7068
2017-09-02T07:05:47.414Z,7068
2017-09-02T07:06:48.167Z,7072
2017-09-02T07:07:48.898Z,7160
2017-09-02T07:08:49.633Z,7220
2017-09-02T07:09:50.369Z,7328
2017-09-02T07:10:51.097Z,7380
2017-09-02T07:11:51.831Z,7404
2017-09-02T07:12:52.565Z,7620
2017-09-02T07:13:53.297Z,7700
2017-09-02T07:14:54.054Z,7840
2017-09-02T07:15:54.787Z,7980
2017-09-02T07:16:55.522Z,8080
2017-09-02T07:17:56.275Z,8268
2017-09-02T07:18:57.010Z,8604
2017-09-02T07:19:57.762Z,9096
2017-09-02T07:20:58.495Z,9896
2017-09-02T07:21:59.232Z,13204
2017-09-02T07:22:59.970Z,21408
2017-09-02T07:24:00.706Z,25408
2017-09-02T07:25:01.460Z,27520
2017-09-02T07:26:02.196Z,27808
2017-09-02T07:27:02.933Z,28992
2017-09-02T07:28:03.668Z,30368
2017-09-02T07:29:04.406Z,31328
2017-09-02T07:30:05.141Z,31616
2017-09-02T07:31:05.878Z,31168
2017-09-02T07:32:06.638Z,31328
2017-09-02T07:33:07.373Z,31360
2017-09-02T07:34:08.113Z,31456
2017-09-02T07:35:08.847Z,31936
2017-09-02T07:36:09.581Z,33152
2017-09-02T07:37:10.321Z,34304
2017-09-02T07:38:11.087Z,35744
2017-09-02T07:39:11.830Z,35616
2017-09-02T07:40:12.570Z,35904
2017-09-02T07:41:13.305Z,36032
2017-09-02T07:42:14.045Z,36224
2017-09-02T07:43:14.789Z,37696
2017-09-02T07:44:15.530Z,37216
2017-09-02T07:45:16.293Z,37408
2017-09-02T07:46:17.056Z,37760
2017-09-02T07:47:17.798Z,36512
2017-09-02T07:48:18.540Z,37472
2017-09-02T07:49:19.280Z,38592
2017-09-02T07:50:20.020Z,38400
2017-09-02T07:51:20.765Z,38240
2017-09-02T07:52:21.506Z,38752
2017-09-02T07:53:22.244Z,39296
2017-09-02T07:54:22.987Z,39872
2017-09-02T07:55:23.726Z,40608
2017-09-02T07:56:24.463Z,42880
2017-09-02T07:57:25.221Z,44160
2017-09-02T07:58:25.959Z,43360
2017-09-02T07:59:26.697Z,43776
2017-09-02T08:00:27.458Z,43968
2017-09-02T08:01:28.213Z,43072
2017-09-02T08:02:28.934Z,43328
2017-09-02T08:03:29.681Z,45504
2017-09-02T08:04:30.411Z,45888
2017-09-02T08:05:31.152Z,46112
2017-09-02T08:06:31.895Z,46528
2017-09-02T08:07:32.655Z,46816
2017-09-02T08:08:33.400Z,46304
2017-09-02T08:09:34.138Z,47040
2017-09-02T08:10:34.878Z,47040
2017-09-02T08:11:35.618Z,48032
2017-09-02T08:12:36.362Z,48192
2017-09-02T08:13:37.123Z,48160
2017-09-02T08:14:37.861Z,49056
2017-09-02T08:15:38.602Z,48736
2017-09-02T08:16:39.340Z,49472
2017-09-02T08:17:40.083Z,50656
2017-09-02T08:18:40.843Z,50400
2017-09-02T08:19:41.591Z,50688
2017-09-02T08:20:42.327Z,50176
2017-09-02T08:21:43.067Z,52448
2017-09-02T08:22:43.827Z,51872
2017-09-02T08:23:44.574Z,53184
2017-09-02T08:24:45.318Z,53248
2017-09-02T08:25:46.077Z,54784
2017-09-02T08:26:46.822Z,53312
2017-09-02T08:27:47.585Z,52480
2017-09-02T08:28:48.327Z,54176
2017-09-02T08:29:49.065Z,54400
2017-09-02T08:30:49.827Z,55648
2017-09-02T08:31:50.568Z,55840
2017-09-02T08:32:51.313Z,56352
2017-09-02T08:33:52.075Z,56960
2017-09-02T08:34:52.818Z,56768
2017-09-02T08:35:53.561Z,57856
2017-09-02T08:36:54.323Z,56800
2017-09-02T08:37:55.063Z,58048
2017-09-02T08:38:55.825Z,57952
2017-09-02T08:39:56.569Z,58656
2017-09-02T08:40:57.310Z,57440
2017-09-02T08:41:58.052Z,57504
2017-09-02T08:42:58.798Z,57888
2017-09-02T08:43:59.536Z,57632
2017-09-02T08:45:00.281Z,58944
2017-09-02T08:46:01.020Z,58880
2017-09-02T08:47:01.779Z,60320
2017-09-02T08:48:02.524Z,60448
2017-09-02T08:49:03.266Z,61568
2017-09-02T08:50:04.007Z,60544
2017-09-02T08:51:04.774Z,60544
2017-09-02T08:52:05.514Z,59488
2017-09-02T08:53:06.252Z,58272
2017-09-02T08:54:06.993Z,58720
2017-09-02T08:55:07.756Z,58880
2017-09-02T08:56:08.498Z,60160
2017-09-02T08:57:09.245Z,63040
2017-09-02T08:58:09.987Z,64928
2017-09-02T08:59:10.731Z,66624
2017-09-02T09:00:11.474Z,63360
2017-09-02T09:01:12.220Z,62592
2017-09-02T09:02:12.993Z,57440
2017-09-02T09:03:13.754Z,53504
2017-09-02T09:04:14.501Z,50624
2017-09-02T09:05:15.245Z,41536
2017-09-02T09:06:15.991Z,24992
2017-09-02T09:07:16.730Z,54848
2017-09-02T09:08:17.477Z,60128
2017-09-02T09:09:18.223Z,60320
2017-09-02T09:10:18.972Z,65312
2017-09-02T09:11:19.716Z,66112
2017-09-02T09:12:20.465Z,68064
2017-09-02T09:13:21.211Z,67136
2017-09-02T09:14:21.965Z,66048
2017-09-02T09:15:22.740Z,67968
2017-09-02T09:16:23.492Z,67840
2017-09-02T09:17:24.241Z,68480
2017-09-02T09:18:24.992Z,68416
2017-09-02T09:19:25.744Z,67552
2017-09-02T09:20:26.519Z,67200
2017-09-02T09:21:27.271Z,69632
2017-09-02T09:22:28.025Z,56896
2017-09-02T09:23:28.780Z,70720
2017-09-02T09:24:29.531Z,67904
2017-09-02T09:25:30.306Z,69472
2017-09-02T09:26:31.055Z,65024
2017-09-02T09:27:31.810Z,69248
2017-09-02T09:28:32.568Z,70400
2017-09-02T09:29:33.317Z,20736
2017-09-02T09:30:34.069Z,70944
2017-09-02T09:31:34.826Z,68256
2017-09-02T09:32:35.576Z,68288
2017-09-02T09:33:36.324Z,68224
2017-09-02T09:34:37.097Z,64960
2017-09-02T09:35:37.849Z,62688
2017-09-02T09:36:38.597Z,59424
2017-09-02T09:37:39.351Z,60032
2017-09-02T09:38:40.100Z,60064
2017-09-02T09:39:40.854Z,60928
2017-09-02T09:40:41.625Z,60288
2017-09-02T09:41:42.375Z,57824
2017-09-02T09:42:43.129Z,55616
2017-09-02T09:43:43.900Z,31968
2017-09-02T09:44:44.661Z,69952
2017-09-02T09:45:45.408Z,69184
2017-09-02T09:46:46.159Z,67584
2017-09-02T09:47:46.915Z,66656
2017-09-02T09:48:47.669Z,65920
2017-09-02T09:49:48.423Z,67904
2017-09-02T09:50:49.195Z,67136
2017-09-02T09:51:49.949Z,69248
2017-09-02T09:52:50.693Z,71360
2017-09-02T09:53:51.465Z,69696
2017-09-02T09:54:52.215Z,65440
2017-09-02T09:55:52.964Z,71776
2017-09-02T09:56:53.713Z,71776
2017-09-02T09:57:54.464Z,74464
2017-09-02T09:58:55.229Z,73728
2017-09-02T09:59:55.980Z,71552
2017-09-02T10:00:56.729Z,71616
2017-09-02T10:01:57.503Z,48800
2017-09-02T10:02:58.253Z,56224
2017-09-02T10:03:58.999Z,33824
2017-09-02T10:04:59.749Z,16416
2017-09-02T10:06:00.501Z,72288
2017-09-02T10:07:01.246Z,69248
2017-09-02T10:08:01.995Z,69600
2017-09-02T10:09:02.745Z,70592
2017-09-02T10:10:03.512Z,70528
2017-09-02T10:11:04.258Z,72000
2017-09-02T10:12:05.029Z,69632
2017-09-02T10:13:05.781Z,74688
2017-09-02T10:14:06.528Z,71072
2017-09-02T10:15:07.279Z,72000
2017-09-02T10:16:08.029Z,71392
2017-09-02T10:17:08.784Z,68384
2017-09-02T10:18:09.531Z,71808
2017-09-02T10:19:10.278Z,74624
2017-09-02T10:20:11.028Z,76896
2017-09-02T10:21:11.784Z,79776
2017-09-02T10:22:12.534Z,79072
2017-09-02T10:23:13.282Z,82816
2017-09-02T10:24:14.029Z,82592
2017-09-02T10:25:14.778Z,83296
2017-09-02T10:26:15.525Z,75360
2017-09-02T10:27:16.271Z,34336
2017-09-02T10:28:17.021Z,16544
2017-09-02T10:29:17.769Z,13388
2017-09-02T10:30:18.518Z,11472
2017-09-02T10:31:19.264Z,11260
2017-09-02T10:32:20.019Z,11460
2017-09-02T10:33:20.763Z,11744
2017-09-02T10:34:21.510Z,11568
2017-09-02T10:35:22.258Z,11568
2017-09-02T10:36:23.007Z,11964
2017-09-02T10:37:23.774Z,12620
2017-09-02T10:38:24.518Z,13300
2017-09-02T10:39:25.258Z,13084
2017-09-02T10:40:25.996Z,12504
2017-09-02T10:41:26.754Z,12456
2017-09-02T10:42:27.511Z,13288
2017-09-02T10:43:28.273Z,15736
2017-09-02T10:44:29.015Z,15576
2017-09-02T10:45:29.755Z,54272
2017-09-02T10:46:30.494Z,12492
2017-09-02T10:47:31.231Z,11132
2017-09-02T10:48:31.973Z,10280
2017-09-02T10:49:32.711Z,10532
2017-09-02T10:50:33.445Z,10132
2017-09-02T10:51:34.185Z,9320
2017-09-02T10:52:34.947Z,8936
2017-09-02T10:53:35.680Z,8888
2017-09-02T10:54:36.418Z,9012
2017-09-02T10:55:37.152Z,8964
2017-09-02T10:56:37.891Z,9764
2017-09-02T10:57:38.652Z,28288
2017-09-02T10:58:39.394Z,44928
2017-09-02T10:59:40.150Z,74912
2017-09-02T11:00:40.910Z,78624
2017-09-02T11:01:41.651Z,78656
2017-09-02T11:02:42.388Z,81376
2017-09-02T11:03:43.131Z,79616
2017-09-02T11:04:43.872Z,78464
2017-09-02T11:05:44.613Z,77952
2017-09-02T11:06:45.353Z,80640
2017-09-02T11:07:46.092Z,77120
2017-09-02T11:08:46.835Z,77376
2017-09-02T11:09:47.576Z,77696
2017-09-02T11:10:48.326Z,77024
2017-09-02T11:11:49.072Z,79008
2017-09-02T11:12:49.816Z,77696
2017-09-02T11:13:50.565Z,75936
2017-09-02T11:14:51.334Z,77920
2017-09-02T11:15:52.094Z,78688
2017-09-02T11:16:52.862Z,77600
2017-09-02T11:17:53.635Z,78432
2017-09-02T11:18:54.394Z,78400
2017-09-02T11:19:55.144Z,79200
2017-09-02T11:20:55.916Z,80544
2017-09-02T11:21:56.683Z,81536
2017-09-02T11:22:57.433Z,81024
2017-09-02T11:23:58.187Z,82720
2017-09-02T11:24:58.927Z,83680
2017-09-02T11:25:59.679Z,83680
2017-09-02T11:27:00.432Z,78560
2017-09-02T11:28:01.182Z,81280
2017-09-02T11:29:01.932Z,79840
2017-09-02T11:30:02.685Z,78816
2017-09-02T11:31:03.436Z,77408
2017-09-02T11:32:04.182Z,50784
2017-09-02T11:33:04.933Z,10404
2017-09-02T11:34:05.683Z,9940
2017-09-02T11:35:06.427Z,9512
2017-09-02T11:36:07.179Z,9576
2017-09-02T11:37:07.942Z,9924
2017-09-02T11:38:08.692Z,11332
2017-09-02T11:39:09.443Z,37152
2017-09-02T11:40:10.195Z,78176
2017-09-02T11:41:10.970Z,78464
2017-09-02T11:42:11.714Z,79424
2017-09-02T11:43:12.466Z,76992
2017-09-02T11:44:13.218Z,76736
2017-09-02T11:45:13.966Z,78144
2017-09-02T11:46:14.711Z,78080
2017-09-02T11:47:15.461Z,78016
2017-09-02T11:48:16.210Z,77984
2017-09-02T11:49:16.961Z,77856
2017-09-02T11:50:17.730Z,77952
2017-09-02T11:51:18.479Z,77664
2017-09-02T11:52:19.226Z,78048
2017-09-02T11:53:19.975Z,77600
2017-09-02T11:54:20.729Z,78624
2017-09-02T11:55:21.481Z,79648
2017-09-02T11:56:22.232Z,77696
2017-09-02T11:57:22.985Z,76864
2017-09-02T11:58:23.731Z,77408
2017-09-02T11:59:24.483Z,76320
2017-09-02T12:00:25.235Z,73920
2017-09-02T12:01:25.980Z,74208
2017-09-02T12:02:26.728Z,72960
2017-09-02T12:03:27.476Z,73696
2017-09-02T12:04:28.221Z,76384
2017-09-02T12:05:28.970Z,79520
2017-09-02T12:06:29.719Z,79808
2017-09-02T12:07:30.468Z,81216
2017-09-02T12:08:31.219Z,79872
2017-09-02T12:09:31.969Z,79488
2017-09-02T12:10:32.715Z,80736
2017-09-02T12:11:33.463Z,79392
2017-09-02T12:12:34.236Z,79360
2017-09-02T12:13:34.984Z,79776
2017-09-02T12:14:35.755Z,79264
2017-09-02T12:15:36.512Z,79264
2017-09-02T12:16:37.258Z,78176
2017-09-02T12:17:38.011Z,76864
2017-09-02T12:18:38.758Z,76064
2017-09-02T12:19:39.507Z,74016
2017-09-02T12:20:40.258Z,73024
2017-09-02T12:21:41.006Z,72128
2017-09-02T12:22:41.761Z,73024
2017-09-02T12:23:42.533Z,75552
2017-09-02T12:24:43.283Z,77600
2017-09-02T12:25:44.032Z,76288
2017-09-02T12:26:44.783Z,75936
2017-09-02T12:27:45.549Z,76320
2017-09-02T12:28:46.315Z,78944
2017-09-02T12:29:47.064Z,77408
2017-09-02T12:30:47.808Z,17568
2017-09-02T12:31:48.555Z,11712
2017-09-02T12:32:49.326Z,10132
2017-09-02T12:33:50.067Z,9652
2017-09-02T12:34:50.808Z,9224
2017-09-02T12:35:51.557Z,9524
2017-09-02T12:36:52.304Z,9600
2017-09-02T12:37:53.047Z,9308
2017-09-02T12:38:53.793Z,9680
2017-09-02T12:39:54.536Z,9436
2017-09-02T12:40:55.285Z,8772
2017-09-02T12:41:56.035Z,8652
2017-09-02T12:42:56.778Z,8584
2017-09-02T12:43:57.528Z,8860
2017-09-02T12:44:58.271Z,10256
2017-09-02T12:45:59.033Z,10928
2017-09-02T12:46:59.774Z,77216
2017-09-02T12:48:00.557Z,76320
2017-09-02T12:49:01.300Z,80320
2017-09-02T12:50:02.043Z,4488
2017-09-02T12:51:02.788Z,4352
2017-09-02T12:52:03.543Z,4332
2017-09-02T12:53:04.283Z,4664
2017-09-02T12:54:05.045Z,5532
2017-09-02T12:55:05.778Z,5536
2017-09-02T12:56:06.521Z,5372
2017-09-02T12:57:07.255Z,5248
2017-09-02T12:58:07.991Z,5008
2017-09-02T12:59:08.727Z,4304
2017-09-02T13:00:09.465Z,5076
2017-09-02T13:01:10.204Z,4636
2017-09-02T13:02:10.942Z,5360
2017-09-02T13:03:11.675Z,5648
2017-09-02T13:04:12.414Z,5888
2017-09-02T13:05:13.150Z,5936
2017-09-02T13:06:13.884Z,6108
2017-09-02T13:07:14.625Z,6092
2017-09-02T13:08:15.358Z,5848
2017-09-02T13:09:16.096Z,5552
2017-09-02T13:10:16.846Z,5168
2017-09-02T13:11:17.585Z,4880
2017-09-02T13:12:18.320Z,4704
2017-09-02T13:13:19.055Z,4640
2017-09-02T13:14:19.794Z,4568
2017-09-02T13:15:20.531Z,4512
2017-09-02T13:16:21.286Z,4612
2017-09-02T13:17:22.019Z,4948
2017-09-02T13:18:22.753Z,5196
2017-09-02T13:19:23.489Z,5132
2017-09-02T13:20:24.223Z,5228
2017-09-02T13:21:24.957Z,5312
2017-09-02T13:22:25.691Z,5224
2017-09-02T13:23:26.446Z,5060
2017-09-02T13:24:27.201Z,4704
2017-09-02T13:25:27.937Z,4332
2017-09-02T13:26:28.668Z,4284
2017-09-02T13:27:29.404Z,4408
2017-09-02T13:28:30.137Z,4508
2017-09-02T13:29:30.875Z,4564
2017-09-02T13:30:31.634Z,4440
2017-09-02T13:31:32.385Z,4164
2017-09-02T13:32:33.118Z,3380
2017-09-02T13:33:33.854Z,3284
2017-09-02T13:35:31.873Z,3300
2017-09-02T13:36:32.610Z,3284
2017-09-02T13:37:33.370Z,3144
2017-09-02T13:38:34.097Z,2976
2017-09-02T13:39:34.831Z,3436
2017-09-02T13:40:35.564Z,3472
2017-09-02T13:41:36.302Z,3500
2017-09-02T13:42:37.035Z,3532
2017-09-02T13:43:37.766Z,3084
2017-09-02T13:44:38.527Z,2704
2017-09-02T13:45:39.280Z,2652
2017-09-02T13:46:40.037Z,2932
2017-09-02T13:47:40.772Z,3020